createdAt,value
2018-06-25T00:01:41.989Z,15.20
2018-06-25T00:04:10.897Z,15.30
2018-06-25T00:06:39.878Z,15.20
2018-06-25T00:09:09.951Z,15.20
2018-06-25T00:11:38.916Z,15.10
2018-06-25T00:14:07.951Z,15.10
2018-06-25T00:16:36.835Z,15.10
2018-06-25T00:19:05.783Z,15.20
2018-06-25T00:21:35.158Z,15.10
2018-06-25T00:24:04.094Z,15.10
2018-06-25T00:26:33.003Z,15.00
2018-06-25T00:29:02.081Z,15.00
2018-06-25T00:31:31.083Z,15.00
2018-06-25T00:33:59.977Z,14.90
2018-06-25T00:36:28.790Z,14.80
2018-06-25T00:38:57.680Z,14.80
2018-06-25T00:41:26.790Z,14.80
2018-06-25T00:43:55.666Z,14.70
2018-06-25T00:46:24.698Z,14.70
2018-06-25T00:48:53.737Z,14.70
2018-06-25T00:51:22.630Z,14.60
2018-06-25T00:53:51.598Z,14.60
2018-06-25T00:56:20.397Z,14.60
2018-06-25T00:59:00.485Z,14.60
2018-06-25T01:01:29.488Z,14.60
2018-06-25T01:03:58.356Z,14.60
2018-06-25T01:06:27.275Z,14.60
2018-06-25T01:08:56.189Z,14.50
2018-06-25T01:11:25.091Z,14.60
2018-06-25T01:13:53.925Z,14.50
2018-06-25T01:16:22.821Z,14.50
2018-06-25T01:18:51.678Z,14.40
2018-06-25T01:21:20.643Z,14.40
2018-06-25T01:23:49.505Z,14.40
2018-06-25T01:26:18.301Z,14.40
2018-06-25T01:28:47.157Z,14.40
2018-06-25T01:31:15.978Z,14.40
2018-06-25T01:33:45.044Z,14.40
2018-06-25T01:36:13.879Z,14.40
2018-06-25T01:38:42.725Z,14.30
2018-06-25T01:41:11.537Z,14.40
2018-06-25T01:43:40.410Z,14.30
2018-06-25T01:46:09.377Z,14.30
2018-06-25T01:48:38.249Z,14.30
2018-06-25T01:51:07.613Z,14.30
2018-06-25T01:53:36.431Z,14.40
2018-06-25T01:56:05.453Z,14.40
2018-06-25T01:58:34.683Z,14.40
2018-06-25T02:01:03.925Z,14.40
2018-06-25T02:03:32.881Z,14.40
2018-06-25T02:06:01.668Z,14.40
2018-06-25T02:08:30.551Z,14.30
2018-06-25T02:10:59.415Z,14.30
2018-06-25T02:13:28.394Z,14.20
2018-06-25T02:15:57.244Z,14.20
2018-06-25T02:18:26.272Z,14.10
2018-06-25T02:20:55.160Z,14.10
2018-06-25T02:23:24.075Z,14.20
2018-06-25T02:25:53.036Z,14.10
2018-06-25T02:28:22.340Z,14.20
2018-06-25T02:30:51.210Z,14.20
2018-06-25T02:33:20.094Z,14.10
2018-06-25T02:35:49.004Z,14.20
2018-06-25T02:38:17.946Z,14.20
2018-06-25T02:40:46.850Z,14.10
2018-06-25T02:43:15.852Z,14.10
2018-06-25T02:45:44.663Z,14.10
2018-06-25T02:48:13.686Z,14.20
2018-06-25T02:50:42.463Z,14.20
2018-06-25T02:53:11.356Z,14.20
2018-06-25T02:55:40.640Z,14.10
2018-06-25T02:58:09.501Z,14.10
2018-06-25T03:00:38.461Z,14.10
2018-06-25T03:08:04.316Z,14.10
2018-06-25T03:10:33.117Z,14.10
2018-06-25T03:13:02.152Z,14.10
2018-06-25T03:15:31.021Z,14.10
2018-06-25T03:17:59.901Z,14.10
2018-06-25T03:20:29.320Z,14.10
2018-06-25T03:22:58.374Z,14.20
2018-06-25T03:25:27.368Z,14.20
2018-06-25T03:27:56.332Z,14.20
2018-06-25T03:30:25.830Z,14.20
2018-06-25T03:32:55.055Z,14.30
2018-06-25T03:35:24.042Z,14.20
2018-06-25T03:37:53.099Z,14.20
2018-06-25T03:40:21.935Z,14.30
2018-06-25T03:42:50.806Z,14.30
2018-06-25T03:45:19.740Z,14.30
2018-06-25T03:47:48.606Z,14.30
2018-06-25T03:50:17.584Z,14.20
2018-06-25T03:52:46.417Z,14.20
2018-06-25T03:55:15.215Z,14.30
2018-06-25T03:57:44.437Z,14.30
2018-06-25T04:00:13.406Z,14.30
2018-06-25T04:02:42.229Z,14.30
2018-06-25T04:05:11.298Z,14.30
2018-06-25T04:07:40.436Z,14.30
2018-06-25T04:10:09.235Z,14.20
2018-06-25T04:12:38.123Z,14.20
2018-06-25T04:15:07.148Z,14.20
2018-06-25T04:17:36.244Z,14.30
2018-06-25T04:20:05.246Z,14.40
2018-06-25T04:22:34.357Z,14.50
2018-06-25T04:25:03.122Z,14.60
2018-06-25T04:27:32.004Z,14.60
2018-06-25T04:30:00.878Z,14.60
2018-06-25T04:32:29.694Z,14.70
2018-06-25T04:34:58.445Z,14.70
2018-06-25T04:37:27.331Z,14.70
2018-06-25T04:39:56.238Z,14.80
2018-06-25T04:42:25.180Z,14.90
2018-06-25T04:44:54.177Z,15.00
2018-06-25T04:47:23.264Z,15.00
2018-06-25T04:49:52.098Z,15.10
2018-06-25T04:52:21.017Z,15.20
2018-06-25T04:54:51.200Z,15.30
2018-06-25T04:57:20.085Z,15.20
2018-06-25T04:59:48.964Z,15.30
2018-06-25T05:02:17.781Z,15.40
2018-06-25T05:04:46.885Z,15.40
2018-06-25T05:07:29.959Z,15.70
2018-06-25T05:09:59.434Z,15.90
2018-06-25T05:12:28.585Z,16.00
2018-06-25T05:14:57.466Z,16.00
2018-06-25T05:17:26.368Z,16.00
2018-06-25T05:19:56.174Z,15.90
2018-06-25T05:22:25.026Z,15.90
2018-06-25T05:24:54.038Z,16.00
2018-06-25T05:27:26.682Z,16.00
2018-06-25T05:29:58.880Z,16.00
2018-06-25T05:32:27.756Z,16.00
2018-06-25T05:34:56.756Z,15.80
2018-06-25T05:37:25.661Z,15.60
2018-06-25T05:39:54.610Z,15.50
2018-06-25T05:42:24.031Z,15.50
2018-06-25T05:44:53.465Z,15.70
2018-06-25T05:47:31.904Z,15.80
2018-06-25T05:50:00.729Z,15.90
2018-06-25T05:52:35.233Z,16.60
2018-06-25T05:55:06.200Z,17.90
2018-06-25T05:57:35.828Z,19.40
2018-06-25T06:00:05.109Z,20.10
2018-06-25T06:02:34.007Z,20.50
2018-06-25T06:05:02.942Z,20.40
2018-06-25T06:07:32.158Z,21.00
2018-06-25T06:10:01.344Z,20.30
2018-06-25T06:12:30.394Z,19.20
2018-06-25T06:15:00.456Z,18.40
2018-06-25T06:17:29.497Z,17.70
2018-06-25T06:19:58.298Z,17.30
2018-06-25T06:22:27.142Z,17.10
2018-06-25T06:24:56.168Z,17.20
2018-06-25T06:27:25.225Z,17.20
2018-06-25T06:29:54.188Z,18.20
2018-06-25T06:32:23.420Z,19.70
2018-06-25T06:34:52.444Z,20.80
2018-06-25T06:37:21.365Z,21.90
2018-06-25T06:39:50.210Z,23.20
2018-06-25T06:42:19.014Z,24.70
2018-06-25T06:44:47.836Z,25.20
2018-06-25T06:47:16.731Z,25.10
2018-06-25T06:49:45.532Z,24.60
2018-06-25T06:52:14.875Z,23.50
2018-06-25T06:57:12.187Z,20.80
2018-06-25T06:59:41.221Z,19.90
2018-06-25T07:02:10.037Z,19.00
2018-06-25T07:04:38.923Z,18.50
2018-06-25T07:07:07.702Z,18.70
2018-06-25T07:09:36.641Z,19.50
2018-06-25T07:12:05.526Z,19.80
2018-06-25T07:14:34.634Z,20.20
2018-06-25T07:17:03.470Z,21.00
2018-06-25T07:19:32.393Z,21.30
2018-06-25T07:22:01.319Z,20.80
2018-06-25T07:24:37.908Z,20.50
2018-06-25T07:27:06.838Z,20.10
2018-06-25T07:29:35.717Z,19.70
2018-06-25T07:32:04.816Z,19.80
2018-06-25T07:34:33.667Z,19.60
2018-06-25T07:37:02.488Z,19.70
2018-06-25T07:39:31.235Z,19.80
2018-06-25T07:42:00.117Z,19.70
2018-06-25T07:44:29.441Z,19.70
2018-06-25T07:46:58.439Z,19.80
2018-06-25T07:49:27.365Z,19.60
2018-06-25T07:51:56.557Z,19.50
2018-06-25T07:54:25.465Z,19.50
2018-06-25T07:56:54.348Z,19.50
2018-06-25T07:59:23.179Z,19.20
2018-06-25T08:01:52.237Z,19.20
2018-06-25T08:04:21.348Z,19.20
2018-06-25T08:06:50.539Z,19.20
2018-06-25T08:09:19.507Z,19.40
2018-06-25T08:11:48.357Z,19.30
2018-06-25T08:14:17.494Z,19.30
2018-06-25T08:16:46.482Z,19.00
2018-06-25T08:19:15.293Z,18.80
2018-06-25T08:21:44.411Z,18.70
2018-06-25T08:24:13.399Z,18.70
2018-06-25T08:26:42.332Z,18.80
2018-06-25T08:31:39.789Z,19.00
2018-06-25T08:34:09.189Z,18.90
2018-06-25T08:36:38.167Z,18.80
2018-06-25T08:39:12.086Z,18.80
2018-06-25T08:41:41.633Z,18.90
2018-06-25T08:44:10.641Z,19.10
2018-06-25T08:46:40.033Z,19.00
2018-06-25T08:51:38.651Z,19.10
2018-06-25T08:54:07.434Z,19.10
2018-06-25T08:56:36.255Z,19.00
2018-06-25T08:59:05.004Z,18.80
2018-06-25T09:01:33.770Z,18.60
2018-06-25T09:04:02.635Z,18.70
2018-06-25T09:06:31.487Z,18.80
2018-06-25T09:09:00.387Z,19.10
2018-06-25T09:11:30.107Z,19.40
2018-06-25T09:13:59.003Z,19.70
2018-06-25T09:16:27.981Z,20.00
2018-06-25T09:18:56.757Z,20.40
2018-06-25T09:21:25.676Z,20.50
2018-06-25T09:23:54.582Z,20.50
2018-06-25T09:26:23.529Z,20.80
2018-06-25T09:28:52.453Z,21.20
2018-06-25T09:31:21.258Z,21.30
2018-06-25T09:33:50.195Z,21.10
2018-06-25T09:36:19.407Z,20.70
2018-06-25T09:38:48.197Z,20.60
2018-06-25T09:41:17.157Z,20.40
2018-06-25T09:43:46.119Z,20.20
2018-06-25T09:46:15.319Z,19.80
2018-06-25T09:48:44.149Z,19.70
2018-06-25T09:51:12.950Z,19.70
2018-06-25T09:53:41.955Z,19.70
2018-06-25T09:56:10.774Z,19.70
2018-06-25T09:58:39.639Z,19.90
2018-06-25T10:01:11.497Z,20.40
2018-06-25T10:03:41.641Z,20.60
2018-06-25T10:06:11.125Z,20.60
2018-06-25T10:08:40.056Z,20.60
2018-06-25T10:11:08.975Z,20.90
2018-06-25T10:13:37.816Z,21.10
2018-06-25T10:16:06.689Z,21.40
2018-06-25T10:18:35.751Z,21.70
2018-06-25T10:21:04.514Z,21.80
2018-06-25T10:23:33.375Z,21.20
2018-06-25T10:26:02.188Z,21.20
2018-06-25T10:28:33.181Z,21.40
2018-06-25T10:31:02.090Z,21.60
2018-06-25T10:33:31.967Z,22.00
2018-06-25T10:36:00.817Z,22.30
2018-06-25T10:38:30.239Z,22.70
2018-06-25T10:40:59.107Z,22.50
2018-06-25T10:43:28.001Z,22.00
2018-06-25T10:45:56.776Z,21.80
2018-06-25T10:48:25.769Z,21.90
2018-06-25T10:50:54.757Z,22.10
2018-06-25T10:53:23.634Z,22.40
2018-06-25T10:55:52.442Z,22.20
2018-06-25T10:58:21.268Z,22.10
2018-06-25T11:00:50.105Z,21.90
2018-06-25T11:03:18.887Z,21.80
2018-06-25T11:05:47.834Z,21.50
2018-06-25T11:08:17.097Z,21.20
2018-06-25T11:10:46.027Z,21.40
2018-06-25T11:13:14.852Z,21.30
2018-06-25T11:15:43.697Z,21.40
2018-06-25T11:18:12.509Z,21.40
2018-06-25T11:20:41.425Z,21.60
2018-06-25T11:23:10.382Z,21.60
2018-06-25T11:25:59.594Z,21.60
2018-06-25T11:28:28.446Z,21.70
2018-06-25T11:30:57.382Z,21.80
2018-06-25T11:33:26.381Z,21.80
2018-06-25T11:36:08.072Z,21.70
2018-06-25T11:38:36.952Z,21.50
2018-06-25T11:41:05.857Z,21.70
2018-06-25T11:43:34.706Z,21.80
2018-06-25T11:46:03.633Z,21.90
2018-06-25T11:48:32.942Z,22.20
2018-06-25T11:51:01.790Z,23.20
2018-06-25T11:53:30.684Z,24.70
2018-06-25T11:55:59.597Z,26.20
2018-06-25T11:58:28.401Z,27.40
2018-06-25T12:00:57.387Z,28.20
2018-06-25T12:03:26.385Z,27.20
2018-06-25T12:05:55.806Z,26.60
2018-06-25T12:08:24.683Z,25.60
2018-06-25T12:10:53.871Z,24.70
2018-06-25T12:13:22.781Z,23.90
2018-06-25T12:15:51.593Z,23.10
2018-06-25T12:18:20.365Z,23.90
2018-06-25T12:23:17.565Z,27.00
2018-06-25T12:25:46.499Z,28.10
2018-06-25T12:28:15.311Z,27.80
2018-06-25T12:30:53.991Z,27.40
2018-06-25T12:33:23.313Z,27.60
2018-06-25T12:35:52.180Z,27.10
2018-06-25T12:38:24.551Z,26.60
2018-06-25T12:40:53.369Z,26.20
2018-06-25T12:43:22.182Z,25.70
2018-06-25T12:45:50.990Z,26.60
2018-06-25T12:48:19.855Z,28.00
2018-06-25T12:50:48.724Z,28.80
2018-06-25T12:53:17.603Z,28.30
2018-06-25T12:55:46.430Z,28.00
2018-06-25T12:58:15.192Z,28.70
2018-06-25T13:00:44.035Z,29.40
2018-06-25T13:03:13.275Z,29.80
2018-06-25T13:05:42.287Z,28.80
2018-06-25T13:08:11.083Z,28.20
2018-06-25T13:10:39.921Z,28.20
2018-06-25T13:13:08.691Z,27.70
2018-06-25T13:15:37.526Z,26.20
2018-06-25T13:18:06.511Z,25.30
2018-06-25T13:20:35.353Z,24.20
2018-06-25T13:23:04.319Z,23.80
2018-06-25T13:25:33.252Z,24.60
2018-06-25T13:28:02.062Z,24.30
2018-06-25T13:30:31.041Z,23.90
2018-06-25T13:32:59.821Z,23.90
2018-06-25T13:35:28.617Z,24.50
2018-06-25T13:37:57.479Z,24.10
2018-06-25T13:42:54.754Z,26.40
2018-06-25T13:45:23.667Z,26.30
2018-06-25T13:47:52.536Z,26.40
2018-06-25T13:50:21.299Z,25.60
2018-06-25T13:52:50.207Z,24.90
2018-06-25T13:55:19.157Z,24.90
2018-06-25T13:57:48.088Z,24.50
2018-06-25T14:00:16.996Z,24.20
2018-06-25T14:02:45.915Z,24.90
2018-06-25T14:05:14.775Z,25.70
2018-06-25T14:07:43.790Z,26.30
2018-06-25T14:10:12.799Z,27.30
2018-06-25T14:12:41.728Z,28.00
2018-06-25T14:15:10.696Z,27.80
2018-06-25T14:17:39.648Z,28.60
2018-06-25T14:20:08.690Z,28.50
2018-06-25T14:22:37.845Z,28.20
2018-06-25T14:25:06.714Z,27.70
2018-06-25T14:27:40.986Z,27.40
2018-06-25T14:30:15.198Z,26.80
2018-06-25T14:32:48.341Z,25.60
2018-06-25T14:37:46.855Z,24.30
2018-06-25T14:40:15.989Z,24.10
2018-06-25T14:42:47.066Z,23.90
2018-06-25T14:45:15.902Z,23.80
2018-06-25T14:47:44.652Z,24.40
2018-06-25T14:50:13.592Z,25.50
2018-06-25T14:52:42.511Z,26.70
2018-06-25T14:55:11.382Z,27.40
2018-06-25T14:57:40.161Z,28.00
2018-06-25T15:00:08.998Z,27.40
2018-06-25T15:02:37.937Z,26.40
2018-06-25T15:05:06.828Z,25.90
2018-06-25T15:07:48.712Z,25.40
2018-06-25T15:10:17.664Z,24.50
2018-06-25T15:13:07.209Z,23.90
2018-06-25T15:15:36.053Z,23.30
2018-06-25T15:18:05.258Z,23.20
2018-06-25T15:20:34.136Z,23.30
2018-06-25T15:23:03.112Z,23.70
2018-06-25T15:25:32.536Z,24.10
2018-06-25T15:28:01.435Z,24.60
2018-06-25T15:32:59.043Z,25.10
2018-06-25T15:35:27.900Z,25.00
2018-06-25T15:37:56.890Z,25.10
2018-06-25T15:40:25.967Z,24.80
2018-06-25T15:42:54.664Z,24.40
2018-06-25T15:45:23.516Z,23.80
2018-06-25T15:47:52.416Z,23.50
2018-06-25T15:50:21.300Z,23.20
2018-06-25T15:52:50.136Z,23.00
2018-06-25T15:55:20.064Z,22.90
2018-06-25T15:57:50.903Z,23.20
2018-06-25T16:00:20.673Z,23.20
2018-06-25T16:02:49.548Z,23.20
2018-06-25T16:05:18.832Z,23.10
2018-06-25T16:07:53.416Z,23.00
2018-06-25T16:10:22.806Z,22.80
2018-06-25T16:15:20.031Z,22.50
2018-06-25T16:17:48.848Z,22.20
2018-06-25T16:20:17.620Z,22.10
2018-06-25T16:22:46.402Z,22.00
2018-06-25T16:25:15.286Z,22.00
2018-06-25T16:27:44.180Z,22.10
2018-06-25T16:30:13.142Z,22.20
2018-06-25T16:32:42.246Z,22.30
2018-06-25T16:35:11.172Z,22.20
2018-06-25T16:37:40.166Z,21.90
2018-06-25T16:40:09.089Z,21.70
2018-06-25T16:42:38.036Z,21.60
2018-06-25T16:45:07.108Z,21.60
2018-06-25T16:47:36.308Z,21.60
2018-06-25T16:50:05.984Z,21.70
2018-06-25T16:52:34.750Z,21.80
2018-06-25T16:55:03.692Z,22.00
2018-06-25T16:57:32.800Z,22.30
2018-06-25T17:00:01.759Z,22.40
2018-06-25T17:02:30.688Z,22.40
2018-06-25T17:04:59.438Z,22.20
2018-06-25T17:07:28.778Z,22.10
2018-06-25T17:09:57.668Z,22.00
2018-06-25T17:12:27.065Z,21.90
2018-06-25T17:14:55.926Z,21.90
2018-06-25T17:17:24.729Z,21.70
2018-06-25T17:19:53.616Z,21.70
2018-06-25T17:22:22.542Z,21.60
2018-06-25T17:24:51.442Z,21.50
2018-06-25T17:29:48.976Z,21.60
2018-06-25T17:32:18.160Z,21.60
2018-06-25T17:34:47.158Z,21.60
2018-06-25T17:37:16.056Z,21.60
2018-06-25T17:39:44.971Z,21.60
2018-06-25T17:42:13.951Z,21.50
2018-06-25T17:44:42.792Z,21.60
2018-06-25T17:47:11.719Z,21.50
2018-06-25T17:49:40.623Z,21.50
2018-06-25T17:52:09.478Z,21.40
2018-06-25T17:54:38.652Z,21.40
2018-06-25T17:57:07.615Z,21.30
2018-06-25T17:59:36.603Z,21.20
2018-06-25T18:02:05.487Z,21.20
2018-06-25T18:04:34.645Z,21.20
2018-06-25T18:07:03.531Z,21.20
2018-06-25T18:09:32.387Z,21.20
2018-06-25T18:12:01.273Z,21.20
2018-06-25T18:14:30.105Z,21.30
2018-06-25T18:16:59.131Z,21.30
2018-06-25T18:19:27.878Z,21.30
2018-06-25T18:21:56.672Z,21.20
2018-06-25T18:24:25.634Z,21.20
2018-06-25T18:26:54.577Z,21.20
2018-06-25T18:29:23.990Z,21.20
2018-06-25T18:31:53.013Z,21.20
2018-06-25T18:34:22.026Z,21.20
2018-06-25T18:36:50.876Z,21.10
2018-06-25T18:39:19.879Z,21.00
2018-06-25T18:41:48.706Z,20.80
2018-06-25T18:44:17.601Z,20.80
2018-06-25T18:46:46.445Z,20.60
2018-06-25T18:49:15.289Z,20.50
2018-06-25T18:51:44.560Z,20.50
2018-06-25T18:54:13.426Z,20.40
2018-06-25T18:56:42.416Z,20.30
2018-06-25T18:59:11.737Z,20.20
2018-06-25T19:01:40.954Z,20.20
2018-06-25T19:04:09.930Z,20.10
2018-06-25T19:06:38.953Z,20.00
2018-06-25T19:11:38.605Z,19.90
2018-06-25T19:14:07.479Z,19.90
2018-06-25T19:16:36.424Z,19.80
2018-06-25T19:19:05.860Z,19.80
2018-06-25T19:21:34.674Z,19.80
2018-06-25T19:24:03.703Z,19.70
2018-06-25T19:26:32.643Z,19.70
2018-06-25T19:29:01.878Z,19.70
2018-06-25T19:31:30.856Z,19.60
2018-06-25T19:33:59.789Z,19.60
2018-06-25T19:36:28.643Z,19.60
2018-06-25T19:38:57.469Z,19.60
2018-06-25T19:41:26.351Z,19.60
2018-06-25T19:43:55.296Z,19.50
2018-06-25T19:46:24.252Z,19.40
2018-06-25T19:48:53.125Z,19.40
2018-06-25T19:51:21.983Z,19.30
2018-06-25T19:53:50.801Z,19.20
2018-06-25T19:56:19.905Z,19.10
2018-06-25T19:58:48.894Z,19.10
2018-06-25T20:01:23.286Z,19.00
2018-06-25T20:04:07.583Z,18.90
2018-06-25T20:06:36.547Z,18.80
2018-06-25T20:09:11.578Z,18.70
2018-06-25T20:11:40.935Z,18.70
2018-06-25T20:14:10.196Z,18.60
2018-06-25T20:16:39.126Z,18.50
2018-06-25T20:21:36.827Z,18.30
2018-06-25T20:24:06.055Z,18.20
2018-06-25T20:26:35.112Z,18.20
2018-06-25T20:29:04.315Z,18.10
2018-06-25T20:31:33.336Z,18.00
2018-06-25T20:34:02.499Z,18.00
2018-06-25T20:36:33.609Z,17.90
2018-06-25T20:39:02.786Z,17.90
2018-06-25T20:41:32.020Z,17.80
2018-06-25T20:44:01.090Z,17.80
2018-06-25T20:46:29.913Z,17.70
2018-06-25T20:49:01.089Z,17.70
2018-06-25T20:51:30.033Z,17.60
2018-06-25T20:53:59.093Z,17.50
2018-06-25T20:56:31.894Z,17.50
2018-06-25T20:59:01.289Z,17.40
2018-06-25T21:01:30.129Z,17.40
2018-06-25T21:04:02.469Z,17.30
2018-06-25T21:06:34.667Z,17.30
2018-06-25T21:09:03.703Z,17.20
2018-06-25T21:11:43.032Z,17.20
2018-06-25T21:14:12.056Z,17.10
2018-06-25T21:16:40.980Z,17.10
2018-06-25T21:24:23.473Z,17.10
2018-06-25T21:26:52.577Z,17.10
2018-06-25T21:29:21.447Z,17.10
2018-06-25T21:31:50.494Z,17.20
2018-06-25T21:34:19.455Z,17.20
2018-06-25T21:36:48.384Z,17.20
2018-06-25T21:39:29.277Z,17.20
2018-06-25T21:41:58.336Z,17.20
2018-06-25T21:44:27.277Z,17.30
2018-06-25T21:46:56.195Z,17.20
2018-06-25T21:49:25.101Z,17.20
2018-06-25T21:51:54.115Z,17.30
2018-06-25T21:54:23.223Z,17.30
2018-06-25T21:56:52.323Z,17.20
2018-06-25T21:59:21.437Z,17.30
2018-06-25T22:01:52.645Z,17.20
2018-06-25T22:04:21.865Z,17.20
2018-06-25T22:06:51.273Z,17.10
2018-06-25T22:09:20.555Z,17.10
2018-06-25T22:11:50.533Z,17.10
2018-06-25T22:14:19.891Z,17.00
2018-06-25T22:16:49.035Z,17.00
2018-06-25T22:19:18.025Z,16.90
2018-06-25T22:21:46.891Z,16.90
2018-06-25T22:24:15.925Z,16.90
2018-06-25T22:26:44.775Z,16.80
2018-06-25T22:29:13.705Z,16.80
2018-06-25T22:31:42.711Z,16.90
2018-06-25T22:36:40.363Z,16.90
2018-06-25T22:39:11.333Z,16.80
2018-06-25T22:41:40.891Z,16.80
2018-06-25T22:44:12.801Z,16.80
2018-06-25T22:46:42.951Z,16.80
2018-06-25T22:51:40.748Z,16.80
2018-06-25T22:54:09.616Z,16.70
2018-06-25T22:56:38.463Z,16.70
2018-06-25T22:59:07.768Z,16.70
2018-06-25T23:01:36.768Z,16.70
2018-06-25T23:04:05.737Z,16.70
2018-06-25T23:06:34.586Z,16.70
2018-06-25T23:09:03.865Z,16.70
2018-06-25T23:11:33.381Z,16.70
2018-06-25T23:14:02.220Z,16.70
2018-06-25T23:16:31.179Z,16.80
2018-06-25T23:19:00.278Z,16.80
2018-06-25T23:21:29.193Z,16.80
2018-06-25T23:23:58.031Z,16.80
2018-06-25T23:26:26.881Z,16.80
2018-06-25T23:28:55.737Z,16.90
2018-06-25T23:31:24.707Z,16.90
2018-06-25T23:33:53.531Z,16.90
2018-06-25T23:36:22.563Z,16.90
2018-06-25T23:38:51.355Z,16.90
2018-06-25T23:41:20.182Z,16.90
2018-06-25T23:43:49.627Z,16.90
2018-06-25T23:46:18.465Z,16.80
2018-06-25T23:48:47.279Z,16.80
2018-06-25T23:51:16.145Z,16.80
2018-06-25T23:53:45.032Z,16.80
2018-06-25T23:56:14.172Z,16.80
2018-06-25T23:58:43.119Z,16.70
